createdAt,value
2019-05-07T00:00:22.086Z,9.12
2019-05-07T00:01:23.309Z,9.15
2019-05-07T00:02:22.572Z,9.12
2019-05-07T00:03:22.049Z,9.17
2019-05-07T00:04:22.446Z,9.06
2019-05-07T00:05:22.838Z,9.17
2019-05-07T00:06:23.110Z,9.06
2019-05-07T00:07:22.403Z,9.04
2019-05-07T00:08:22.961Z,9.06
2019-05-07T00:09:23.290Z,8.94
2019-05-07T00:10:21.822Z,8.97
2019-05-07T00:11:22.325Z,8.85
2019-05-07T00:12:23.057Z,8.83
2019-05-07T00:13:22.709Z,8.83
2019-05-07T00:14:23.107Z,8.94
2019-05-07T00:15:23.012Z,8.89
2019-05-07T00:16:22.421Z,8.80
2019-05-07T00:17:22.849Z,8.80
2019-05-07T00:18:22.978Z,8.78
2019-05-07T00:19:23.092Z,8.82
2019-05-07T00:20:23.128Z,8.73
2019-05-07T00:21:23.321Z,8.86
2019-05-07T00:22:22.767Z,8.83
2019-05-07T00:23:23.161Z,8.79
2019-05-07T00:24:22.403Z,8.86
2019-05-07T00:25:22.819Z,8.80
2019-05-07T00:26:22.533Z,8.85
2019-05-07T00:27:22.716Z,8.80
2019-05-07T00:28:23.069Z,8.75
2019-05-07T00:29:22.500Z,8.80
2019-05-07T00:30:22.403Z,8.80
2019-05-07T00:31:23.255Z,8.79
2019-05-07T00:32:22.325Z,8.79
2019-05-07T00:33:22.790Z,8.76
2019-05-07T00:34:22.234Z,8.80
2019-05-07T00:35:22.619Z,8.80
2019-05-07T00:36:23.069Z,8.79
2019-05-07T00:37:22.324Z,8.80
2019-05-07T00:38:22.491Z,8.80
2019-05-07T00:39:22.382Z,8.80
2019-05-07T00:40:22.604Z,8.76
2019-05-07T00:41:22.974Z,8.68
2019-05-07T00:42:22.467Z,8.76
2019-05-07T00:43:22.818Z,8.70
2019-05-07T00:44:22.524Z,8.67
2019-05-07T00:45:23.906Z,8.67
2019-05-07T00:46:22.668Z,8.73
2019-05-07T00:47:22.613Z,8.70
2019-05-07T00:48:23.502Z,8.63
2019-05-07T00:49:22.670Z,8.63
2019-05-07T00:50:22.698Z,8.58
2019-05-07T00:51:22.749Z,8.67
2019-05-07T00:52:22.769Z,8.65
2019-05-07T00:53:23.631Z,8.58
2019-05-07T00:54:23.102Z,8.63
2019-05-07T00:55:22.873Z,8.58
2019-05-07T00:56:22.878Z,8.61
2019-05-07T00:57:23.031Z,8.57
2019-05-07T00:58:26.556Z,8.60
2019-05-07T00:59:22.962Z,8.61
2019-05-07T01:00:22.989Z,8.57
2019-05-07T01:01:23.018Z,8.57
2019-05-07T01:02:23.046Z,8.60
2019-05-07T01:03:23.075Z,8.65
2019-05-07T01:04:23.160Z,8.58
2019-05-07T01:05:23.250Z,8.54
2019-05-07T01:06:26.335Z,8.64
2019-05-07T01:07:23.191Z,8.58
2019-05-07T01:08:23.222Z,8.47
2019-05-07T01:09:23.255Z,8.61
2019-05-07T01:10:23.279Z,8.50
2019-05-07T01:11:23.311Z,8.57
2019-05-07T01:12:23.337Z,8.54
2019-05-07T01:13:23.640Z,8.45
2019-05-07T01:14:23.394Z,8.43
2019-05-07T01:15:31.222Z,8.46
2019-05-07T01:16:23.451Z,8.49
2019-05-07T01:17:23.482Z,8.40
2019-05-07T01:18:23.583Z,8.50
2019-05-07T01:19:23.539Z,8.40
2019-05-07T01:20:23.567Z,8.47
2019-05-07T01:21:23.595Z,8.47
2019-05-07T01:22:23.628Z,8.49
2019-05-07T01:23:23.654Z,8.36
2019-05-07T01:24:23.681Z,8.36
2019-05-07T01:25:23.710Z,8.42
2019-05-07T01:26:23.740Z,8.37
2019-05-07T01:27:23.768Z,8.42
2019-05-07T01:28:23.798Z,8.37
2019-05-07T01:29:23.827Z,8.29
2019-05-07T01:30:23.855Z,8.31
2019-05-07T01:31:23.884Z,8.37
2019-05-07T01:32:23.913Z,8.39
2019-05-07T01:33:23.941Z,8.29
2019-05-07T01:34:23.972Z,8.39
2019-05-07T01:35:24.003Z,8.39
2019-05-07T01:36:24.027Z,8.37
2019-05-07T01:37:24.057Z,8.36
2019-05-07T01:38:24.085Z,8.40
2019-05-07T01:39:24.114Z,8.39
2019-05-07T01:40:24.143Z,8.39
2019-05-07T01:41:24.173Z,8.34
2019-05-07T01:42:24.203Z,8.37
2019-05-07T01:43:24.233Z,8.37
2019-05-07T01:44:24.258Z,8.36
2019-05-07T01:45:24.981Z,8.37
2019-05-07T01:46:24.752Z,8.36
2019-05-07T01:47:24.343Z,8.43
2019-05-07T01:48:24.372Z,8.32
2019-05-07T01:49:24.400Z,8.40
2019-05-07T01:50:24.430Z,8.34
2019-05-07T01:51:24.459Z,8.43
2019-05-07T01:52:24.488Z,8.39
2019-05-07T01:53:24.517Z,8.29
2019-05-07T01:54:24.546Z,8.31
2019-05-07T01:55:24.575Z,8.31
2019-05-07T01:56:24.604Z,8.27
2019-05-07T01:57:24.633Z,8.27
2019-05-07T01:58:24.659Z,8.28
2019-05-07T01:59:24.689Z,8.29
2019-05-07T02:00:24.718Z,8.27
2019-05-07T02:01:24.745Z,8.24
2019-05-07T02:02:24.776Z,8.24
2019-05-07T02:03:24.805Z,8.25
2019-05-07T02:04:24.833Z,8.27
2019-05-07T02:05:24.868Z,8.32
2019-05-07T02:06:24.891Z,8.32
2019-05-07T02:07:24.922Z,8.29
2019-05-07T02:08:24.948Z,8.27
2019-05-07T02:09:24.979Z,8.28
2019-05-07T02:10:25.005Z,8.25
2019-05-07T02:11:25.034Z,8.25
2019-05-07T02:12:25.064Z,8.28
2019-05-07T02:13:25.091Z,8.29
2019-05-07T02:14:25.120Z,8.34
2019-05-07T02:15:25.149Z,8.42
2019-05-07T02:16:25.178Z,8.40
2019-05-07T02:17:25.207Z,8.31
2019-05-07T02:18:25.235Z,8.37
2019-05-07T02:19:25.265Z,8.27
2019-05-07T02:20:25.293Z,8.31
2019-05-07T02:21:25.321Z,8.39
2019-05-07T02:22:25.354Z,8.27
2019-05-07T02:23:25.381Z,8.27
2019-05-07T02:24:25.409Z,8.29
2019-05-07T02:25:25.436Z,8.25
2019-05-07T02:26:25.464Z,8.34
2019-05-07T02:27:25.494Z,8.29
2019-05-07T02:28:25.522Z,8.32
2019-05-07T02:29:25.553Z,8.31
2019-05-07T02:30:25.580Z,8.25
2019-05-07T02:31:25.610Z,8.29
2019-05-07T02:32:25.639Z,8.25
2019-05-07T02:33:25.666Z,8.32
2019-05-07T02:34:25.697Z,8.29
2019-05-07T02:35:25.724Z,8.28
2019-05-07T02:36:25.758Z,8.29
2019-05-07T02:37:30.566Z,8.28
2019-05-07T02:38:25.811Z,8.27
2019-05-07T02:39:25.839Z,8.28
2019-05-07T02:40:25.877Z,8.29
2019-05-07T02:41:25.901Z,8.25
2019-05-07T02:42:25.931Z,8.29
2019-05-07T02:43:25.956Z,8.36
2019-05-07T02:44:25.984Z,8.25
2019-05-07T02:45:26.012Z,8.25
2019-05-07T02:46:31.643Z,8.27
2019-05-07T02:47:26.068Z,8.28
2019-05-07T02:48:26.098Z,8.29
2019-05-07T02:49:26.125Z,8.34
2019-05-07T02:50:26.157Z,8.29
2019-05-07T02:51:26.185Z,8.27
2019-05-07T02:52:26.213Z,8.21
2019-05-07T02:53:26.241Z,8.20
2019-05-07T02:54:26.301Z,8.18
2019-05-07T02:55:26.299Z,8.20
2019-05-07T02:56:26.331Z,8.27
2019-05-07T02:57:26.367Z,8.28
2019-05-07T02:58:26.386Z,8.31
2019-05-07T02:59:26.418Z,8.14
2019-05-07T03:00:26.443Z,8.28
2019-05-07T03:01:26.474Z,8.34
2019-05-07T03:02:26.499Z,8.28
2019-05-07T03:03:26.528Z,8.28
2019-05-07T03:04:26.556Z,8.20
2019-05-07T03:05:26.586Z,8.27
2019-05-07T03:06:26.613Z,8.28
2019-05-07T03:07:26.646Z,8.14
2019-05-07T03:08:27.660Z,8.36
2019-05-07T03:09:26.702Z,8.29
2019-05-07T03:10:26.727Z,8.27
2019-05-07T03:11:26.755Z,8.27
2019-05-07T03:12:26.786Z,8.22
2019-05-07T03:13:26.815Z,8.20
2019-05-07T03:14:26.849Z,8.21
2019-05-07T03:15:26.879Z,8.20
2019-05-07T03:16:39.549Z,8.17
2019-05-07T03:17:26.928Z,8.21
2019-05-07T03:18:26.957Z,8.13
2019-05-07T03:19:26.987Z,8.27
2019-05-07T03:20:27.030Z,8.21
2019-05-07T03:21:27.045Z,8.21
2019-05-07T03:22:27.075Z,8.14
2019-05-07T03:23:27.101Z,8.21
2019-05-07T03:24:27.130Z,8.27
2019-05-07T03:25:27.161Z,8.13
2019-05-07T03:26:27.189Z,8.17
2019-05-07T03:27:27.215Z,8.18
2019-05-07T03:28:27.248Z,8.20
2019-05-07T03:29:27.277Z,8.21
2019-05-07T03:30:27.311Z,8.14
2019-05-07T03:31:27.330Z,8.20
2019-05-07T03:32:28.475Z,8.10
2019-05-07T03:33:27.406Z,8.20
2019-05-07T03:34:27.426Z,8.22
2019-05-07T03:35:28.226Z,8.18
2019-05-07T03:36:27.473Z,8.20
2019-05-07T03:37:31.645Z,8.21
2019-05-07T03:38:27.529Z,8.18
2019-05-07T03:39:27.580Z,8.14
2019-05-07T03:40:27.586Z,8.17
2019-05-07T03:41:27.616Z,8.20
2019-05-07T03:42:27.653Z,8.07
2019-05-07T03:43:27.672Z,8.07
2019-05-07T03:44:27.709Z,8.21
2019-05-07T03:45:27.731Z,8.10
2019-05-07T03:46:27.760Z,8.24
2019-05-07T03:47:27.789Z,8.20
2019-05-07T03:48:27.821Z,8.24
2019-05-07T03:49:27.850Z,8.13
2019-05-07T03:50:27.875Z,8.17
2019-05-07T03:51:27.909Z,8.20
2019-05-07T03:52:27.934Z,8.20
2019-05-07T03:53:27.959Z,8.17
2019-05-07T03:54:27.985Z,8.25
2019-05-07T03:55:28.014Z,8.21
2019-05-07T03:56:28.046Z,8.21
2019-05-07T03:57:28.071Z,8.20
2019-05-07T03:58:28.101Z,8.18
2019-05-07T03:59:28.130Z,8.09
2019-05-07T04:00:28.164Z,8.18
2019-05-07T04:01:28.188Z,8.09
2019-05-07T04:02:28.215Z,8.10
2019-05-07T04:03:28.249Z,8.18
2019-05-07T04:04:28.274Z,8.07
2019-05-07T04:05:28.301Z,8.18
2019-05-07T04:06:28.330Z,8.14
2019-05-07T04:07:28.359Z,8.20
2019-05-07T04:08:28.396Z,8.21
2019-05-07T04:09:28.416Z,8.17
2019-05-07T04:10:28.443Z,8.17
2019-05-07T04:11:28.482Z,8.10
2019-05-07T04:12:28.502Z,8.24
2019-05-07T04:13:28.536Z,8.31
2019-05-07T04:14:28.559Z,8.31
2019-05-07T04:15:28.587Z,8.25
2019-05-07T04:16:28.616Z,8.27
2019-05-07T04:17:28.649Z,8.20
2019-05-07T04:18:28.673Z,8.18
2019-05-07T04:19:28.703Z,8.14
2019-05-07T04:20:28.730Z,8.25
2019-05-07T04:21:28.763Z,8.25
2019-05-07T04:22:29.262Z,8.27
2019-05-07T04:23:28.816Z,8.14
2019-05-07T04:24:28.845Z,8.27
2019-05-07T04:25:28.875Z,8.25
2019-05-07T04:26:28.906Z,8.29
2019-05-07T04:27:28.937Z,8.24
2019-05-07T04:28:28.959Z,8.17
2019-05-07T04:29:28.988Z,8.21
2019-05-07T04:30:29.027Z,8.31
2019-05-07T04:31:29.045Z,8.25
2019-05-07T04:32:29.074Z,8.24
2019-05-07T04:33:29.102Z,8.17
2019-05-07T04:34:29.136Z,8.24
2019-05-07T04:35:29.167Z,8.28
2019-05-07T04:36:35.576Z,8.24
2019-05-07T04:38:33.401Z,8.27
2019-05-07T04:39:33.507Z,8.34
2019-05-07T04:41:33.294Z,8.36
2019-05-07T04:42:33.604Z,8.32
2019-05-07T04:44:35.277Z,8.42
2019-05-07T04:45:35.301Z,8.36
2019-05-07T04:47:38.614Z,8.34
2019-05-07T04:48:27.297Z,8.45
2019-05-07T04:50:40.651Z,8.42
2019-05-07T04:51:29.326Z,8.37
2019-05-07T04:53:23.696Z,8.42
2019-05-07T04:54:23.746Z,8.45
2019-05-07T04:56:24.043Z,8.52
2019-05-07T04:57:23.710Z,8.43
2019-05-07T04:59:25.542Z,8.50
2019-05-07T05:00:25.546Z,8.47
2019-05-07T05:02:27.558Z,8.50
2019-05-07T05:03:27.581Z,8.42
2019-05-07T05:05:32.735Z,8.52
2019-05-07T05:06:29.615Z,8.54
2019-05-07T05:08:32.609Z,8.50
2019-05-07T05:09:32.878Z,8.64
2019-05-07T05:11:33.791Z,8.65
2019-05-07T05:12:33.683Z,8.58
2019-05-07T05:14:35.682Z,8.63
2019-05-07T05:15:35.705Z,8.73
2019-05-07T05:17:27.658Z,8.75
2019-05-07T05:18:27.664Z,8.68
2019-05-07T05:20:29.675Z,8.79
2019-05-07T05:21:29.698Z,8.82
2019-05-07T05:23:32.254Z,8.88
2019-05-07T05:24:32.920Z,8.94
2019-05-07T05:26:33.790Z,8.98
2019-05-07T05:27:33.780Z,8.97
2019-05-07T05:29:35.794Z,9.08
2019-05-07T05:30:35.816Z,9.08
2019-05-07T05:32:37.872Z,9.16
2019-05-07T05:33:37.859Z,9.17
